Time;durP1;ratioP1;P1;durP2;ratioP2;P2;SDS_P1;SDS_P2;PMS_P1;PMS_P2;Temp;Humidity;BMP_temperature;BMP_pressure;BME280_temperature;BME280_humidity;BME280_pressure;Samples;Min_cycle;Max_cycle;Signal;HPM_P1;HPM_P2
2022/08/15 00:01:11;;;;;;;4.85;2.95;;;25.40;55.80;;;;;;5000510;28;20271;-69
2022/08/15 00:03:44;;;;;;;3.35;3.05;;;25.40;55.60;;;;;;4994953;28;20168;-69
2022/08/15 00:06:22;;;;;;;3.63;3.13;;;25.40;55.60;;;;;;4993898;28;20195;-68
2022/08/15 00:08:55;;;;;;;3.22;2.92;;;25.40;55.50;;;;;;5008529;28;20225;-68
2022/08/15 00:11:35;;;;;;;3.25;2.95;;;25.40;55.20;;;;;;4978884;28;20207;-69
2022/08/15 00:14:06;;;;;;;3.42;2.88;;;25.40;55.00;;;;;;4984019;28;20219;-67
2022/08/15 00:16:36;;;;;;;2.83;2.63;;;25.40;54.80;;;;;;4979112;28;20216;-68
2022/08/15 00:19:08;;;;;;;2.70;2.50;;;25.50;55.20;;;;;;5005584;28;20251;-68
2022/08/15 00:21:37;;;;;;;3.00;2.70;;;25.50;54.40;;;;;;5002565;28;20203;-69
2022/08/15 00:24:03;;;;;;;2.95;2.40;;;25.50;54.20;;;;;;4984431;28;20192;-69
2022/08/15 00:26:34;;;;;;;3.33;2.60;;;25.50;54.10;;;;;;4998404;28;20179;-69
2022/08/15 00:29:02;;;;;;;3.17;2.83;;;25.60;54.20;;;;;;5004628;28;20188;-68
2022/08/15 00:31:31;;;;;;;3.05;2.75;;;25.60;54.00;;;;;;4986853;28;20347;-69
2022/08/15 00:34:01;;;;;;;3.35;2.28;;;25.60;53.80;;;;;;4981467;28;20199;-68
2022/08/15 00:36:30;;;;;;;3.03;2.40;;;25.60;53.70;;;;;;4983732;28;20187;-70
2022/08/15 00:39:03;;;;;;;2.80;2.38;;;25.60;53.50;;;;;;5000882;28;20180;-68
2022/08/15 00:41:42;;;;;;;2.20;2.00;;;25.60;53.40;;;;;;4989108;28;20209;-69
2022/08/15 00:44:27;;;;;;;2.35;2.15;;;25.70;53.40;;;;;;4992466;28;20185;-68
2022/08/15 00:46:58;;;;;;;2.60;2.30;;;25.70;53.10;;;;;;5003216;28;20184;-68
2022/08/15 00:49:26;;;;;;;2.72;2.33;;;25.70;53.20;;;;;;5005493;28;20199;-69
2022/08/15 00:52:04;;;;;;;2.42;2.22;;;25.70;53.30;;;;;;4999298;28;20176;-68
2022/08/15 00:54:46;;;;;;;2.72;2.47;;;25.70;53.30;;;;;;5005713;28;20189;-68
2022/08/15 00:57:35;;;;;;;3.50;2.13;;;25.70;53.30;;;;;;5001951;28;20189;-68
2022/08/15 01:00:11;;;;;;;2.63;2.42;;;25.70;53.20;;;;;;4994291;28;20447;-69
2022/08/15 01:02:38;;;;;;;2.28;2.03;;;25.70;53.30;;;;;;5003607;28;20227;-70
2022/08/15 01:05:09;;;;;;;2.70;2.20;;;25.70;53.20;;;;;;4987437;28;20198;-68
2022/08/15 01:07:35;;;;;;;2.92;2.63;;;25.70;53.40;;;;;;4984857;28;20176;-68
2022/08/15 01:10:01;;;;;;;2.65;2.42;;;25.60;53.30;;;;;;5004163;28;20268;-68
2022/08/15 01:12:27;;;;;;;2.88;2.67;;;25.60;53.50;;;;;;4989167;28;20195;-68
2022/08/15 01:15:08;;;;;;;2.88;2.22;;;25.50;53.40;;;;;;4995672;28;20208;-69
2022/08/15 01:17:34;;;;;;;3.00;2.55;;;25.50;53.80;;;;;;4996374;28;20180;-68
2022/08/15 01:20:11;;;;;;;2.58;2.20;;;25.50;53.60;;;;;;4987120;28;20194;-69
2022/08/15 01:22:39;;;;;;;2.60;2.40;;;25.40;53.80;;;;;;4994410;28;20313;-68
2022/08/15 01:25:20;;;;;;;2.70;2.20;;;25.40;53.80;;;;;;4988957;28;20432;-69
2022/08/15 01:28:07;;;;;;;3.33;2.70;;;25.40;54.10;;;;;;4988577;28;20235;-68
2022/08/15 01:30:44;;;;;;;3.03;2.50;;;25.40;54.10;;;;;;5007610;28;20239;-68
2022/08/15 01:33:10;;;;;;;2.50;2.30;;;25.30;54.00;;;;;;5008632;28;20158;-69
2022/08/15 01:35:36;;;;;;;2.50;2.30;;;25.30;53.90;;;;;;5009821;28;20188;-69
2022/08/15 01:38:07;;;;;;;2.63;2.03;;;25.30;54.00;;;;;;4990882;28;20192;-68
2022/08/15 01:40:39;;;;;;;2.38;2.17;;;25.20;54.10;;;;;;4975608;28;20204;-67
2022/08/15 01:43:07;;;;;;;2.85;2.33;;;25.20;54.10;;;;;;4994523;28;20172;-67
2022/08/15 01:45:35;;;;;;;2.53;2.33;;;25.20;54.10;;;;;;5009296;28;20259;-68
2022/08/15 01:48:07;;;;;;;2.50;2.22;;;25.20;54.10;;;;;;4980037;28;20181;-68
2022/08/15 01:50:42;;;;;;;2.30;2.08;;;25.20;54.10;;;;;;4993436;28;20184;-65
2022/08/15 01:53:08;;;;;;;3.00;2.30;;;25.20;54.00;;;;;;4988139;28;20203;-67
2022/08/15 01:56:01;;;;;;;2.63;2.38;;;25.20;53.90;;;;;;4991054;28;20218;-65
2022/08/15 01:58:27;;;;;;;2.55;2.35;;;25.20;54.60;;;;;;4991519;28;20180;-66
2022/08/15 02:00:56;;;;;;;2.30;2.10;;;25.20;53.90;;;;;;5005711;28;20223;-67
2022/08/15 02:03:33;;;;;;;2.40;2.20;;;25.20;54.00;;;;;;4997488;28;20198;-67
2022/08/15 02:06:05;;;;;;;4.43;2.30;;;25.20;53.90;;;;;;4982790;28;20195;-67
2022/08/15 02:08:33;;;;;;;2.38;2.17;;;25.20;54.00;;;;;;4999524;28;20184;-67
2022/08/15 02:10:59;;;;;;;3.10;2.25;;;25.20;54.00;;;;;;4996126;28;20172;-67
2022/08/15 02:13:24;;;;;;;2.47;2.28;;;25.20;54.00;;;;;;5002738;28;20226;-66
2022/08/15 02:15:52;;;;;;;2.90;1.98;;;25.20;53.90;;;;;;4987869;28;20195;-66
2022/08/15 02:18:18;;;;;;;3.15;2.28;;;25.20;54.00;;;;;;4988808;28;20247;-68
2022/08/15 02:20:44;;;;;;;2.75;2.22;;;25.20;53.90;;;;;;4987584;28;20255;-67
2022/08/15 02:23:09;;;;;;;3.00;2.40;;;25.20;54.00;;;;;;4986681;28;20168;-65
2022/08/15 02:25:35;;;;;;;2.53;2.25;;;25.20;54.10;;;;;;4989400;28;20204;-67
2022/08/15 02:28:01;;;;;;;3.55;2.40;;;25.30;54.10;;;;;;5006552;28;20207;-67
2022/08/15 02:30:28;;;;;;;2.40;2.20;;;25.30;54.20;;;;;;5006984;28;20188;-68
2022/08/15 02:32:56;;;;;;;2.30;2.03;;;25.30;54.10;;;;;;4992580;28;20246;-68
2022/08/15 02:35:24;;;;;;;2.30;2.10;;;25.30;54.10;;;;;;5004707;28;20181;-66
2022/08/15 02:37:50;;;;;;;2.35;2.15;;;25.30;54.10;;;;;;4993160;28;20211;-67
2022/08/15 02:40:17;;;;;;;4.22;2.22;;;25.30;54.70;;;;;;4985772;28;20177;-66
2022/08/15 02:42:46;;;;;;;2.40;2.20;;;25.30;54.30;;;;;;4999736;28;20164;-66
2022/08/15 02:45:12;;;;;;;2.72;2.10;;;25.20;54.30;;;;;;4989762;28;20224;-67
2022/08/15 02:47:43;;;;;;;2.75;2.15;;;25.20;54.40;;;;;;5002629;28;20172;-67
2022/08/15 02:50:12;;;;;;;2.35;2.05;;;25.20;54.40;;;;;;4988709;28;20183;-66
2022/08/15 02:52:44;;;;;;;2.45;2.10;;;25.20;54.30;;;;;;5007543;28;20168;-67
2022/08/15 02:55:11;;;;;;;2.05;1.95;;;25.20;54.30;;;;;;4997776;28;20164;-67
2022/08/15 02:57:37;;;;;;;2.60;2.10;;;25.20;54.20;;;;;;4993746;28;20227;-67
2022/08/15 03:00:10;;;;;;;4.45;1.92;;;25.20;54.20;;;;;;5008897;28;20176;-67
2022/08/15 03:02:53;;;;;;;2.10;1.90;;;25.20;54.30;;;;;;4982024;28;20240;-67
2022/08/15 03:05:25;;;;;;;2.13;1.92;;;25.20;54.30;;;;;;4980438;28;20180;-67
2022/08/15 03:07:56;;;;;;;2.35;2.00;;;25.20;54.20;;;;;;5005065;28;20199;-67
2022/08/15 03:10:22;;;;;;;2.47;1.90;;;25.20;54.20;;;;;;4985196;28;20262;-66
2022/08/15 03:12:55;;;;;;;2.72;1.90;;;25.20;54.80;;;;;;5006269;28;20185;-68
2022/08/15 03:15:25;;;;;;;2.35;1.98;;;25.20;54.60;;;;;;5003557;28;20207;-67
2022/08/15 03:17:52;;;;;;;2.13;1.90;;;25.20;54.60;;;;;;4996216;28;20266;-69
2022/08/15 03:20:19;;;;;;;1.85;1.67;;;25.10;54.50;;;;;;4988193;28;20191;-67
2022/08/15 03:22:53;;;;;;;2.85;2.00;;;25.10;54.50;;;;;;4987685;28;20320;-69
2022/08/15 03:25:21;;;;;;;2.70;2.03;;;25.10;54.60;;;;;;4982774;28;20243;-66
2022/08/15 03:27:49;;;;;;;2.03;1.83;;;25.10;54.60;;;;;;5001045;28;20177;-68
2022/08/15 03:30:18;;;;;;;2.33;1.95;;;25.10;54.70;;;;;;4981174;28;20188;-67
2022/08/15 03:32:49;;;;;;;10.75;9.38;;;25.10;54.90;;;;;;5004736;28;20184;-68
2022/08/15 03:35:20;;;;;;;8.80;7.45;;;25.00;55.10;;;;;;4996944;28;20252;-67
2022/08/15 03:37:49;;;;;;;6.70;5.53;;;25.00;55.10;;;;;;5005858;28;20271;-68
2022/08/15 03:40:15;;;;;;;4.32;3.67;;;25.00;55.00;;;;;;4982987;28;20193;-68
2022/08/15 03:43:16;;;;;;;52.67;41.33;;;25.00;55.20;;;;;;4974996;28;20196;-69
2022/08/15 03:45:54;;;;;;;24.17;20.02;;;25.00;55.80;;;;;;4914994;29;20185;-67
2022/08/15 03:48:23;;;;;;;11.88;10.43;;;24.90;55.70;;;;;;4979797;28;20184;-67
2022/08/15 03:50:59;;;;;;;7.70;6.72;;;24.90;55.40;;;;;;4984335;28;20236;-68
2022/08/15 03:53:31;;;;;;;5.78;4.97;;;24.90;55.70;;;;;;4986986;28;20191;-68
2022/08/15 03:56:01;;;;;;;4.78;3.33;;;24.90;55.70;;;;;;5002928;28;20240;-67
2022/08/15 03:58:28;;;;;;;3.30;2.70;;;24.90;55.60;;;;;;5003892;28;20239;-68
2022/08/15 04:00:58;;;;;;;3.25;2.80;;;24.90;55.70;;;;;;4989966;28;20199;-68
2022/08/15 04:03:26;;;;;;;5.43;4.88;;;24.90;55.70;;;;;;4988693;28;20227;-66
2022/08/15 04:05:59;;;;;;;4.13;3.72;;;24.90;55.90;;;;;;4998206;28;20195;-67
2022/08/15 04:08:30;;;;;;;6.32;2.95;;;24.90;56.10;;;;;;4975970;28;20184;-67
2022/08/15 04:10:59;;;;;;;3.42;2.70;;;24.90;56.10;;;;;;4967746;28;20184;-68
2022/08/15 04:13:28;;;;;;;3.05;2.50;;;24.90;56.10;;;;;;4991842;28;20199;-68
2022/08/15 04:15:56;;;;;;;2.55;2.30;;;24.90;56.20;;;;;;4991593;28;20196;-68
2022/08/15 04:18:24;;;;;;;2.70;2.10;;;24.80;56.10;;;;;;4993603;28;20219;-68
2022/08/15 04:20:54;;;;;;;2.47;2.28;;;24.80;56.80;;;;;;4989384;28;20227;-68
2022/08/15 04:23:25;;;;;;;3.30;2.35;;;24.80;56.20;;;;;;4985876;28;20224;-67
2022/08/15 04:25:51;;;;;;;3.45;2.22;;;24.80;56.30;;;;;;4959025;28;20208;-67
2022/08/15 04:28:22;;;;;;;3.00;2.33;;;24.80;56.20;;;;;;4975036;28;20175;-67
2022/08/15 04:30:48;;;;;;;3.13;2.30;;;24.80;56.40;;;;;;4991556;28;20165;-67
2022/08/15 04:33:21;;;;;;;2.13;1.90;;;24.80;56.30;;;;;;4975870;28;20227;-67
2022/08/15 04:35:52;;;;;;;2.30;2.10;;;24.90;56.60;;;;;;4990881;28;20207;-68
2022/08/15 04:38:18;;;;;;;3.33;2.30;;;24.90;56.50;;;;;;4990880;28;20182;-67
2022/08/15 04:40:45;;;;;;;4.30;2.35;;;24.90;56.50;;;;;;4990981;28;20219;-68
2022/08/15 04:43:12;;;;;;;3.03;2.40;;;24.90;56.60;;;;;;4974708;28;20172;-67
2022/08/15 04:45:40;;;;;;;4.18;2.20;;;24.90;56.60;;;;;;4975303;28;20184;-68
2022/08/15 04:48:09;;;;;;;3.10;2.10;;;24.90;56.60;;;;;;4976131;28;20195;-68
2022/08/15 04:50:37;;;;;;;5.10;2.50;;;24.90;56.60;;;;;;4991766;28;20180;-67
2022/08/15 04:53:04;;;;;;;4.53;2.42;;;25.00;56.70;;;;;;4965467;28;20190;-69
2022/08/15 04:55:30;;;;;;;3.00;1.90;;;25.00;56.80;;;;;;4979049;28;20247;-68
2022/08/15 04:57:58;;;;;;;5.65;2.10;;;25.00;56.80;;;;;;4995826;28;20187;-67
2022/08/15 05:00:30;;;;;;;4.22;2.08;;;25.00;56.90;;;;;;4978463;28;20211;-67
2022/08/15 05:03:01;;;;;;;2.72;2.10;;;25.00;57.00;;;;;;4979269;28;20180;-67
2022/08/15 05:05:27;;;;;;;2.80;1.90;;;25.00;57.20;;;;;;4975884;28;20180;-68
2022/08/15 05:07:57;;;;;;;2.88;1.80;;;25.00;57.10;;;;;;4977795;28;20200;-69
2022/08/15 05:10:23;;;;;;;3.53;2.00;;;25.00;57.40;;;;;;4995975;28;20176;-68
2022/08/15 05:12:48;;;;;;;2.47;2.28;;;25.00;57.40;;;;;;4992261;28;20178;-66
2022/08/15 05:15:17;;;;;;;4.15;2.15;;;25.00;57.40;;;;;;4995795;28;20318;-68
2022/08/15 05:17:45;;;;;;;2.33;1.70;;;25.00;57.50;;;;;;4980127;28;20196;-67
2022/08/15 05:20:12;;;;;;;2.80;1.95;;;25.00;57.60;;;;;;4994477;28;20192;-68
2022/08/15 05:22:55;;;;;;;1.88;1.65;;;25.00;57.60;;;;;;4995773;28;20176;-67
2022/08/15 05:25:26;;;;;;;2.63;1.63;;;25.00;58.00;;;;;;4992180;28;20315;-68
2022/08/15 05:27:57;;;;;;;2.10;1.83;;;25.00;57.60;;;;;;4995585;28;20199;-68
2022/08/15 05:30:25;;;;;;;2.10;1.73;;;25.00;57.70;;;;;;4994405;28;20202;-68
2022/08/15 05:33:07;;;;;;;2.10;1.60;;;25.10;58.30;;;;;;4994616;28;20211;-67
2022/08/15 05:35:34;;;;;;;2.40;1.67;;;25.20;58.20;;;;;;4978272;28;20176;-71
2022/08/15 05:38:05;;;;;;;1.90;1.60;;;25.10;57.70;;;;;;4976946;28;20180;-72
2022/08/15 05:41:01;;;;;;;2.00;1.67;;;25.20;57.90;;;;;;4990787;28;20268;-71
2022/08/15 05:43:44;;;;;;;2.28;1.80;;;25.20;57.90;;;;;;4973773;28;20271;-71
2022/08/15 05:46:21;;;;;;;3.17;2.00;;;25.30;58.20;;;;;;4992481;28;20199;-71
2022/08/15 05:49:09;;;;;;;2.70;1.80;;;25.30;57.90;;;;;;5011245;28;20188;-71
2022/08/15 05:51:56;;;;;;;3.05;1.80;;;25.30;57.90;;;;;;5004809;28;20207;-71
2022/08/15 05:54:33;;;;;;;2.65;1.98;;;25.30;57.90;;;;;;4984993;28;20194;-72
2022/08/15 05:57:04;;;;;;;3.92;1.80;;;25.40;58.10;;;;;;4996080;28;20175;-71
2022/08/15 05:59:39;;;;;;;1.70;1.60;;;25.40;58.10;;;;;;5011263;28;20203;-72
2022/08/15 06:02:19;;;;;;;2.20;1.60;;;25.40;58.10;;;;;;4994959;28;20195;-72
2022/08/15 06:05:00;;;;;;;2.95;1.73;;;25.40;58.20;;;;;;4994404;28;20271;-72
2022/08/15 06:07:27;;;;;;;2.55;1.80;;;25.50;58.40;;;;;;4995722;28;20176;-72
2022/08/15 06:10:12;;;;;;;2.67;1.98;;;25.50;58.20;;;;;;4993834;28;20256;-73
2022/08/15 06:12:48;;;;;;;3.17;1.90;;;25.60;58.50;;;;;;4989163;28;20208;-72
2022/08/15 06:15:20;;;;;;;4.28;1.95;;;25.60;58.50;;;;;;4992054;28;20195;-72
2022/08/15 06:17:54;;;;;;;2.60;1.88;;;25.70;58.50;;;;;;4992009;28;20204;-73
2022/08/15 06:20:27;;;;;;;2.85;1.98;;;25.70;58.80;;;;;;4996000;28;20163;-73
2022/08/15 06:23:25;;;;;;;3.83;2.10;;;25.70;58.60;;;;;;4995280;28;20180;-69
2022/08/15 06:26:08;;;;;;;4.80;2.25;;;25.70;58.70;;;;;;4950263;28;20185;-70
2022/08/15 06:28:52;;;;;;;3.65;2.20;;;25.70;58.80;;;;;;5003887;28;20173;-70
2022/08/15 06:31:31;;;;;;;2.80;2.10;;;25.70;59.00;;;;;;5006019;28;20175;-70
2022/08/15 06:34:17;;;;;;;2.30;2.10;;;25.80;59.20;;;;;;5008331;28;20173;-70
2022/08/15 06:37:08;;;;;;;3.20;1.67;;;25.80;59.20;;;;;;4986700;28;20203;-70
2022/08/15 06:39:46;;;;;;;2.72;1.88;;;25.80;59.20;;;;;;5010113;28;20180;-72
2022/08/15 06:42:39;;;;;;;2.67;1.95;;;25.90;59.30;;;;;;4994621;28;20219;-71
2022/08/15 06:45:31;;;;;;;2.38;1.80;;;25.90;59.20;;;;;;4991955;28;20259;-71
2022/08/15 06:48:08;;;;;;;5.55;2.13;;;26.00;59.20;;;;;;5005544;28;20176;-70
2022/08/15 06:50:40;;;;;;;3.47;1.73;;;26.00;59.30;;;;;;5001669;28;20239;-71
2022/08/15 06:53:14;;;;;;;2.38;2.10;;;26.00;59.20;;;;;;4993096;28;20180;-71
2022/08/15 06:56:11;;;;;;;3.08;2.03;;;26.00;59.20;;;;;;5000207;28;20200;-69
2022/08/15 06:58:45;;;;;;;3.75;2.00;;;26.10;59.20;;;;;;4991349;28;20224;-71
2022/08/15 07:01:49;;;;;;;4.10;2.00;;;26.10;59.10;;;;;;4973995;29;20252;-72
2022/08/15 07:04:29;;;;;;;3.67;2.00;;;26.10;59.20;;;;;;5006330;28;20190;-71
2022/08/15 07:07:47;;;;;;;4.57;1.90;;;26.00;59.10;;;;;;4994629;28;20180;-71
2022/08/15 07:10:28;;;;;;;2.58;2.10;;;26.00;59.10;;;;;;4991348;28;20207;-71
2022/08/15 07:13:12;;;;;;;3.08;1.80;;;26.00;59.10;;;;;;4995146;28;20277;-71
2022/08/15 07:15:55;;;;;;;3.35;2.22;;;26.00;59.20;;;;;;5010584;28;20188;-71
2022/08/15 07:18:34;;;;;;;2.13;1.92;;;25.90;59.20;;;;;;5010306;28;20182;-71
2022/08/15 07:21:10;;;;;;;8.07;2.13;;;25.90;59.20;;;;;;4983924;28;20216;-72
2022/08/15 07:23:59;;;;;;;2.25;2.05;;;25.90;59.30;;;;;;5005372;28;20180;-69
2022/08/15 07:26:31;;;;;;;5.63;2.30;;;25.90;59.40;;;;;;4989832;28;20197;-69
2022/08/15 07:28:59;;;;;;;3.13;2.05;;;25.80;59.50;;;;;;5008846;28;20176;-69
2022/08/15 07:31:33;;;;;;;2.20;1.80;;;25.80;59.50;;;;;;4994235;28;20255;-70
2022/08/15 07:34:25;;;;;;;2.30;2.08;;;25.70;59.60;;;;;;4996926;28;20291;-70
2022/08/15 07:36:56;;;;;;;2.90;2.03;;;25.80;59.90;;;;;;4982870;28;20239;-71
2022/08/15 07:39:28;;;;;;;2.25;1.80;;;25.70;59.80;;;;;;4993345;28;20312;-69
2022/08/15 07:41:56;;;;;;;3.63;2.08;;;25.70;59.70;;;;;;5001960;28;20283;-72
2022/08/15 07:44:27;;;;;;;2.80;1.90;;;25.70;59.70;;;;;;4999125;28;20183;-72
2022/08/15 07:47:08;;;;;;;3.17;1.73;;;25.60;59.80;;;;;;4989658;28;20259;-71
2022/08/15 07:49:35;;;;;;;2.08;1.70;;;25.60;59.80;;;;;;4986219;28;20164;-71
2022/08/15 07:52:02;;;;;;;3.00;1.85;;;25.60;59.80;;;;;;5008904;28;20208;-71
2022/08/15 07:54:48;;;;;;;2.35;1.80;;;25.50;59.90;;;;;;4992868;28;20180;-70
2022/08/15 07:57:28;;;;;;;2.20;2.00;;;25.50;59.90;;;;;;4993715;28;20196;-70
2022/08/15 08:00:09;;;;;;;2.28;1.63;;;25.50;60.20;;;;;;5002525;28;20191;-71
2022/08/15 08:02:45;;;;;;;3.42;1.80;;;25.40;60.50;;;;;;4986987;28;20213;-70
2022/08/15 08:05:12;;;;;;;2.95;1.83;;;25.40;60.50;;;;;;4987881;28;20203;-71
2022/08/15 08:07:42;;;;;;;1.58;1.48;;;25.40;60.30;;;;;;4993975;28;20180;-70
2022/08/15 08:10:39;;;;;;;2.20;1.70;;;25.40;60.50;;;;;;4989809;28;20184;-71
2022/08/15 08:13:12;;;;;;;2.40;1.88;;;25.40;60.90;;;;;;5009198;28;20199;-69
2022/08/15 08:16:04;;;;;;;2.03;1.80;;;25.40;60.90;;;;;;4993800;28;20187;-70
2022/08/15 08:18:43;;;;;;;2.53;1.90;;;25.40;61.00;;;;;;4982624;28;20224;-70
2022/08/15 08:21:14;;;;;;;3.08;1.85;;;25.40;61.10;;;;;;4993827;28;20192;-70
2022/08/15 08:23:52;;;;;;;2.85;1.83;;;25.40;61.10;;;;;;5005290;28;20204;-70
2022/08/15 08:27:09;;;;;;;2.53;1.75;;;25.40;61.30;;;;;;4991675;28;20164;-71
2022/08/15 08:30:22;;;;;;;5.65;1.95;;;25.40;61.60;;;;;;4932538;29;20192;-72
2022/08/15 08:32:59;;;;;;;1.65;1.55;;;25.50;61.60;;;;;;4992894;28;20175;-71
2022/08/15 08:35:43;;;;;;;1.83;1.63;;;25.50;61.40;;;;;;4991414;28;20175;-71
2022/08/15 08:38:39;;;;;;;2.38;1.58;;;25.60;61.70;;;;;;4993518;28;20214;-71
2022/08/15 08:41:37;;;;;;;2.10;1.73;;;25.60;61.60;;;;;;4999353;28;20224;-71
2022/08/15 08:44:14;;;;;;;3.05;1.88;;;25.70;61.80;;;;;;4998237;28;20180;-71
2022/08/15 08:47:01;;;;;;;3.70;1.70;;;25.70;61.60;;;;;;4979670;28;20180;-71
2022/08/15 08:49:30;;;;;;;2.40;1.70;;;25.70;61.60;;;;;;4993417;28;20212;-70
2022/08/15 08:52:24;;;;;;;1.98;1.70;;;25.70;61.40;;;;;;4989581;28;20191;-71
2022/08/15 08:55:16;;;;;;;3.28;1.67;;;25.80;61.80;;;;;;5006834;28;20200;-71
2022/08/15 08:58:00;;;;;;;1.77;1.60;;;25.80;61.70;;;;;;5007773;28;20199;-72
2022/08/15 09:00:40;;;;;;;1.65;1.55;;;25.80;61.60;;;;;;4999966;28;20180;-72
2022/08/15 09:03:20;;;;;;;2.75;1.88;;;25.80;61.70;;;;;;5005281;28;20179;-71
2022/08/15 09:05:53;;;;;;;3.67;1.90;;;25.80;62.00;;;;;;5009116;28;20176;-71
2022/08/15 09:08:26;;;;;;;2.08;1.70;;;25.80;62.20;;;;;;4983533;28;20235;-71
2022/08/15 09:10:55;;;;;;;2.47;1.88;;;25.70;62.30;;;;;;4990607;28;20176;-71
2022/08/15 09:13:34;;;;;;;3.45;1.70;;;25.80;62.40;;;;;;4985632;28;20180;-71
2022/08/15 09:16:37;;;;;;;2.50;1.67;;;25.80;62.50;;;;;;4964952;28;20200;-72
2022/08/15 09:19:16;;;;;;;3.13;1.80;;;25.80;62.70;;;;;;4971247;28;20268;-71
2022/08/15 09:21:43;;;;;;;2.65;2.00;;;25.80;62.80;;;;;;4990296;28;20191;-71
2022/08/15 09:24:11;;;;;;;3.80;2.15;;;25.80;62.90;;;;;;5008285;28;20232;-71
2022/08/15 09:26:54;;;;;;;3.05;1.70;;;25.80;63.10;;;;;;5004841;28;20191;-71
2022/08/15 09:29:30;;;;;;;2.60;1.95;;;25.80;63.40;;;;;;4980313;28;20190;-72
2022/08/15 09:32:04;;;;;;;1.63;1.52;;;25.80;63.60;;;;;;4983448;28;20249;-72
2022/08/15 09:34:36;;;;;;;3.10;1.63;;;25.70;63.60;;;;;;4988711;28;20192;-71
2022/08/15 09:37:15;;;;;;;1.75;1.48;;;25.80;63.60;;;;;;4991165;28;20177;-68
2022/08/15 09:39:47;;;;;;;2.70;1.83;;;25.80;63.70;;;;;;4989549;28;20204;-71
2022/08/15 09:42:34;;;;;;;3.05;1.70;;;25.80;63.60;;;;;;4992776;28;20243;-71
2022/08/15 09:45:07;;;;;;;1.60;1.50;;;25.70;63.70;;;;;;4992259;28;20168;-71
2022/08/15 09:47:53;;;;;;;4.32;1.70;;;25.80;63.80;;;;;;5001535;28;20168;-71
2022/08/15 09:50:43;;;;;;;1.65;1.55;;;25.70;64.20;;;;;;4986010;28;20183;-71
2022/08/15 09:53:29;;;;;;;1.77;1.40;;;25.70;64.10;;;;;;4988195;28;20216;-70
2022/08/15 09:56:11;;;;;;;3.40;1.75;;;25.70;64.00;;;;;;4994292;28;20188;-71
2022/08/15 09:58:51;;;;;;;1.90;1.58;;;25.70;64.60;;;;;;5008130;28;20210;-70
2022/08/15 10:01:43;;;;;;;1.70;1.60;;;25.70;64.70;;;;;;4985657;28;20267;-71
2022/08/15 10:04:13;;;;;;;1.92;1.75;;;25.70;65.30;;;;;;4982781;28;20208;-71
2022/08/15 10:06:53;;;;;;;2.03;1.77;;;25.60;65.00;;;;;;4991425;28;20168;-71
2022/08/15 10:09:32;;;;;;;2.63;1.80;;;25.60;65.70;;;;;;4992027;28;20176;-70
2022/08/15 10:12:09;;;;;;;4.25;1.90;;;25.60;65.30;;;;;;4982957;28;20260;-72
2022/08/15 10:14:42;;;;;;;1.65;1.50;;;25.50;65.60;;;;;;4997890;28;20200;-70
2022/08/15 10:17:34;;;;;;;3.10;1.90;;;25.50;65.40;;;;;;4984531;28;20215;-71
2022/08/15 10:20:16;;;;;;;1.92;1.70;;;25.40;66.00;;;;;;4985767;28;20190;-71
2022/08/15 10:22:50;;;;;;;1.60;1.42;;;25.40;66.40;;;;;;4985309;28;20212;-71
2022/08/15 10:25:36;;;;;;;1.85;1.55;;;25.30;66.10;;;;;;4984630;28;20200;-71
2022/08/15 10:28:11;;;;;;;3.72;1.92;;;25.20;67.50;;;;;;4975842;28;20338;-72
2022/08/15 10:30:46;;;;;;;1.90;1.70;;;25.20;68.00;;;;;;4971805;28;20181;-71
2022/08/15 10:33:30;;;;;;;4.75;1.90;;;25.10;68.40;;;;;;4980006;28;20190;-71
2022/08/15 10:36:22;;;;;;;2.67;1.90;;;24.90;70.00;;;;;;4975818;28;20207;-71
2022/08/15 10:39:26;;;;;;;2.20;1.98;;;24.80;70.10;;;;;;4985013;28;20196;-71
2022/08/15 10:42:10;;;;;;;3.53;1.90;;;24.60;70.90;;;;;;4980383;28;20308;-72
2022/08/15 10:44:47;;;;;;;3.95;2.10;;;24.40;71.30;;;;;;4976064;28;20274;-72
2022/08/15 10:47:57;;;;;;;2.53;2.10;;;24.30;72.70;;;;;;4987645;28;20191;-72
2022/08/15 10:50:52;;;;;;;2.10;1.90;;;24.00;75.40;;;;;;4981024;28;20210;-72
2022/08/15 10:53:21;;;;;;;4.85;2.35;;;23.90;77.10;;;;;;4955791;28;20189;-71
2022/08/15 10:55:47;;;;;;;3.40;2.40;;;23.70;76.10;;;;;;4987663;28;20227;-72
2022/08/15 10:58:15;;;;;;;2.10;1.90;;;23.60;76.20;;;;;;5007279;28;20212;-73
2022/08/15 11:00:44;;;;;;;2.20;2.00;;;23.60;77.40;;;;;;4988558;28;20208;-72
2022/08/15 11:03:35;;;;;;;2.17;1.90;;;23.50;78.50;;;;;;4978344;28;20180;-71
2022/08/15 11:06:13;;;;;;;2.38;2.03;;;23.60;79.90;;;;;;4998629;28;20176;-72
2022/08/15 11:08:49;;;;;;;2.50;2.30;;;23.50;81.20;;;;;;4980799;28;20180;-72
2022/08/15 11:11:17;;;;;;;4.10;2.28;;;23.50;82.50;;;;;;4981652;28;20190;-72
2022/08/15 11:13:50;;;;;;;2.33;1.98;;;23.50;82.40;;;;;;4996847;28;20204;-70
2022/08/15 11:16:23;;;;;;;2.50;2.30;;;23.50;83.90;;;;;;4975214;28;20235;-71
2022/08/15 11:18:52;;;;;;;3.20;2.35;;;23.60;84.20;;;;;;4982027;28;20192;-71
2022/08/15 11:21:29;;;;;;;3.35;2.30;;;23.60;84.80;;;;;;4976808;28;20192;-71
2022/08/15 11:24:06;;;;;;;2.78;2.50;;;23.70;86.40;;;;;;4977281;28;20308;-72
2022/08/15 11:26:42;;;;;;;2.60;2.10;;;23.80;87.00;;;;;;4975712;28;20176;-71
2022/08/15 11:29:25;;;;;;;2.40;2.17;;;23.80;87.20;;;;;;4972229;28;20176;-71
2022/08/15 11:32:00;;;;;;;2.83;2.40;;;23.90;86.70;;;;;;4980673;28;20254;-71
2022/08/15 11:34:32;;;;;;;4.15;2.30;;;24.00;87.80;;;;;;4991873;28;20175;-72
2022/08/15 11:37:04;;;;;;;3.53;2.63;;;24.00;87.80;;;;;;4983716;28;20251;-71
2022/08/15 11:39:31;;;;;;;3.42;1.95;;;24.10;88.30;;;;;;4974559;28;20176;-71
2022/08/15 11:42:04;;;;;;;3.15;2.80;;;24.10;87.90;;;;;;4972792;28;20203;-72
2022/08/15 11:45:00;;;;;;;3.47;2.33;;;24.20;88.10;;;;;;4972888;28;20236;-71
2022/08/15 11:47:31;;;;;;;3.25;2.10;;;24.30;88.50;;;;;;4960557;28;20267;-72
2022/08/15 11:50:10;;;;;;;2.13;1.92;;;24.30;88.30;;;;;;4991530;28;20172;-72
2022/08/15 11:52:47;;;;;;;2.72;2.35;;;24.40;88.70;;;;;;4975166;28;20172;-71
2022/08/15 11:55:45;;;;;;;2.40;2.10;;;24.40;89.20;;;;;;4955965;28;20207;-71
2022/08/15 11:58:13;;;;;;;2.63;2.22;;;24.50;88.90;;;;;;4986118;28;20175;-71
2022/08/15 12:00:44;;;;;;;2.40;2.00;;;24.50;88.90;;;;;;4974846;28;20204;-71
2022/08/15 12:03:23;;;;;;;1.90;1.70;;;24.50;88.60;;;;;;4975461;28;20172;-72
2022/08/15 12:05:51;;;;;;;2.38;1.88;;;24.60;88.30;;;;;;4987875;28;20204;-72
2022/08/15 12:08:29;;;;;;;3.55;1.98;;;24.70;88.50;;;;;;4960986;28;20177;-72
2022/08/15 12:11:07;;;;;;;2.10;1.90;;;24.70;89.00;;;;;;4973568;28;20307;-72
2022/08/15 12:13:36;;;;;;;2.00;1.80;;;24.80;88.70;;;;;;4968910;28;20222;-72
2022/08/15 12:16:02;;;;;;;2.25;2.05;;;24.90;88.50;;;;;;4971949;28;20200;-72
2022/08/15 12:18:33;;;;;;;1.80;1.63;;;25.00;88.60;;;;;;4988859;28;20253;-72
2022/08/15 12:20:59;;;;;;;1.70;1.58;;;25.20;88.60;;;;;;4992488;28;20195;-72
2022/08/15 12:23:53;;;;;;;2.25;1.90;;;25.20;88.30;;;;;;4975245;28;20202;-72
2022/08/15 12:26:27;;;;;;;2.13;1.90;;;25.30;88.20;;;;;;4989698;28;20193;-72
2022/08/15 12:28:55;;;;;;;2.20;1.90;;;25.40;87.30;;;;;;4991168;28;20259;-73
2022/08/15 12:31:26;;;;;;;1.70;1.60;;;25.50;87.20;;;;;;4988382;28;20219;-72
2022/08/15 12:34:14;;;;;;;1.75;1.55;;;25.70;87.40;;;;;;4982968;28;20195;-72
2022/08/15 12:36:43;;;;;;;2.42;1.70;;;25.80;87.20;;;;;;4973486;28;20183;-72
2022/08/15 12:39:11;;;;;;;2.30;1.88;;;26.00;87.30;;;;;;4976871;28;20176;-72
2022/08/15 12:41:40;;;;;;;1.60;1.38;;;26.20;86.90;;;;;;4971561;28;20219;-72
2022/08/15 12:44:15;;;;;;;2.38;2.00;;;26.30;86.80;;;;;;4990101;28;20185;-71
2022/08/15 12:46:43;;;;;;;1.80;1.60;;;26.50;86.20;;;;;;4991629;28;20219;-72
2022/08/15 12:49:11;;;;;;;1.90;1.60;;;26.80;86.00;;;;;;4985866;28;20263;-72
2022/08/15 12:51:39;;;;;;;1.67;1.58;;;27.00;85.80;;;;;;4960739;28;20231;-72
2022/08/15 12:54:05;;;;;;;2.33;1.92;;;27.20;85.20;;;;;;4976495;28;20176;-72
2022/08/15 12:56:30;;;;;;;1.83;1.60;;;27.40;84.50;;;;;;4990919;28;20183;-73
2022/08/15 12:58:58;;;;;;;1.70;1.60;;;27.70;84.20;;;;;;4993758;28;20349;-71
2022/08/15 13:01:27;;;;;;;2.88;1.70;;;27.90;83.80;;;;;;4992121;28;20207;-71
2022/08/15 13:03:53;;;;;;;1.70;1.60;;;28.10;83.70;;;;;;4982904;28;20208;-71
2022/08/15 13:06:48;;;;;;;1.73;1.60;;;28.40;83.00;;;;;;4972717;28;20179;-71
2022/08/15 13:09:19;;;;;;;1.95;1.60;;;28.60;82.00;;;;;;4992897;28;20295;-71
2022/08/15 13:11:47;;;;;;;1.70;1.33;;;28.90;81.20;;;;;;4976212;28;20195;-71
2022/08/15 13:14:19;;;;;;;2.25;1.67;;;29.30;81.60;;;;;;4973883;28;20204;-71
2022/08/15 13:16:47;;;;;;;2.45;2.00;;;29.60;78.50;;;;;;4996406;28;20191;-69
2022/08/15 13:19:27;;;;;;;2.83;1.67;;;29.80;75.90;;;;;;4981567;28;20182;-73
2022/08/15 13:24:41;;;;;;;2.00;1.50;;;30.00;75.00;;;;;;4979428;28;21643;-72
2022/08/15 13:27:08;;;;;;;1.88;1.60;;;30.00;74.10;;;;;;4995214;28;20179;-72
2022/08/15 13:29:35;;;;;;;1.40;1.30;;;30.10;74.10;;;;;;4975516;28;20181;-71